Time;durP1;ratioP1;P1;durP2;ratioP2;P2;SDS_P1;SDS_P2;PMS_P1;PMS_P2;Temp;Humidity;BMP_temperature;BMP_pressure;BME280_temperature;BME280_humidity;BME280_pressure;Samples;Min_cycle;Max_cycle;Signal;HPM_P1;HPM_P2
2021/12/01 00:01:30;;;;;;;0.60;0.60;;;5.90;99.90;;;;;;4998894;28;20194;-81
2021/12/01 00:03:55;;;;;;;0.40;0.30;;;5.90;99.90;;;;;;4999105;28;20179;-80
2021/12/01 00:06:21;;;;;;;0.40;0.40;;;5.90;99.90;;;;;;4999817;28;20213;-80
2021/12/01 00:08:47;;;;;;;0.63;0.40;;;5.90;99.90;;;;;;4997658;28;20191;-80
2021/12/01 00:11:12;;;;;;;1.07;0.47;;;5.90;99.90;;;;;;4998590;28;20673;-81
2021/12/01 00:13:38;;;;;;;3.20;1.13;;;5.90;99.90;;;;;;4996687;28;20293;-80
2021/12/01 00:16:04;;;;;;;0.90;0.90;;;5.80;99.90;;;;;;5000567;28;20261;-81
2021/12/01 00:18:30;;;;;;;0.50;0.40;;;5.70;99.90;;;;;;5000691;28;20258;-80
2021/12/01 00:20:56;;;;;;;0.40;0.40;;;5.60;99.90;;;;;;5001775;28;20305;-80
2021/12/01 00:23:23;;;;;;;1.25;0.80;;;5.70;99.90;;;;;;4987577;28;20429;-81
2021/12/01 00:25:48;;;;;;;0.82;0.82;;;5.70;99.90;;;;;;4998655;28;20181;-80
2021/12/01 00:28:14;;;;;;;1.00;1.00;;;5.70;99.90;;;;;;4996579;28;20251;-79
2021/12/01 00:30:40;;;;;;;1.20;1.00;;;5.70;99.90;;;;;;4995437;28;20183;-79
2021/12/01 00:33:09;;;;;;;0.63;0.63;;;5.70;99.90;;;;;;4995115;28;20240;-78
2021/12/01 00:35:35;;;;;;;1.27;1.00;;;5.70;99.90;;;;;;4998740;28;20469;-79
2021/12/01 00:38:00;;;;;;;3.60;0.63;;;5.70;99.90;;;;;;4997504;28;20175;-79
2021/12/01 00:40:26;;;;;;;0.90;0.70;;;5.70;99.90;;;;;;4997367;28;20630;-79
2021/12/01 00:42:53;;;;;;;1.80;0.50;;;5.70;99.90;;;;;;4997722;28;22198;-79
2021/12/01 00:45:21;;;;;;;1.90;0.38;;;5.60;99.90;;;;;;5001006;28;20269;-79
2021/12/01 00:47:52;;;;;;;1.02;0.57;;;5.70;99.90;;;;;;5000491;28;20282;-79
2021/12/01 00:50:17;;;;;;;0.95;0.68;;;5.70;99.90;;;;;;5002512;28;20183;-79
2021/12/01 00:52:43;;;;;;;0.60;0.50;;;5.70;99.90;;;;;;4997992;28;20589;-79
2021/12/01 00:55:09;;;;;;;1.10;1.10;;;5.70;99.90;;;;;;4999443;28;20260;-80
2021/12/01 00:57:36;;;;;;;0.88;0.88;;;5.70;99.90;;;;;;5000421;28;20556;-80
2021/12/01 01:00:07;;;;;;;0.70;0.50;;;5.70;99.90;;;;;;4989787;28;20845;-80
2021/12/01 01:02:32;;;;;;;1.70;0.88;;;5.70;99.90;;;;;;5000112;28;20186;-80
2021/12/01 01:04:58;;;;;;;0.40;0.40;;;5.80;99.90;;;;;;4997693;28;20217;-80
2021/12/01 01:07:23;;;;;;;0.77;0.77;;;5.80;99.90;;;;;;5000893;28;20460;-80
2021/12/01 01:09:49;;;;;;;1.47;0.40;;;5.80;99.90;;;;;;4999507;28;20194;-81
2021/12/01 01:17:51;;;;;;;1.85;1.00;;;5.80;99.90;;;;;;5000380;28;20286;-80
2021/12/01 01:20:17;;;;;;;0.40;0.30;;;5.80;99.90;;;;;;5000783;28;20180;-80
2021/12/01 01:22:43;;;;;;;0.70;0.63;;;5.80;99.90;;;;;;4991529;28;20190;-79
2021/12/01 01:25:09;;;;;;;2.10;1.23;;;5.80;99.90;;;;;;5003933;28;20249;-80
2021/12/01 01:27:35;;;;;;;1.10;0.77;;;5.80;99.90;;;;;;4997447;28;21178;-79
2021/12/01 01:30:03;;;;;;;5.00;1.05;;;5.80;99.90;;;;;;4999420;28;20717;-80
2021/12/01 01:32:33;;;;;;;0.60;0.60;;;5.80;99.90;;;;;;4993179;28;20237;-80
2021/12/01 01:34:59;;;;;;;1.85;0.73;;;5.80;99.90;;;;;;4997501;28;20290;-80
2021/12/01 01:37:24;;;;;;;0.80;0.67;;;5.80;99.90;;;;;;4996066;28;20294;-80
2021/12/01 01:39:50;;;;;;;0.70;0.50;;;5.80;99.90;;;;;;5002119;28;20179;-80
2021/12/01 01:42:15;;;;;;;0.90;0.60;;;5.90;99.90;;;;;;5002310;28;20198;-81
2021/12/01 01:44:41;;;;;;;1.87;1.03;;;5.90;99.90;;;;;;5000215;28;20175;-81
2021/12/01 01:47:06;;;;;;;0.70;0.70;;;5.90;99.90;;;;;;4998322;28;20225;-81
2021/12/01 01:49:45;;;;;;;0.73;0.60;;;5.90;99.90;;;;;;4998583;28;20240;-80
2021/12/01 01:52:10;;;;;;;0.77;0.70;;;5.90;99.90;;;;;;4999206;28;20279;-83
2021/12/01 01:54:36;;;;;;;0.63;0.50;;;5.90;99.90;;;;;;4991755;28;20298;-81
2021/12/01 01:57:02;;;;;;;0.57;0.50;;;6.00;99.90;;;;;;5001806;28;20222;-81
2021/12/01 01:59:27;;;;;;;0.80;0.63;;;6.00;99.90;;;;;;4997213;28;20566;-81
2021/12/01 02:01:56;;;;;;;0.73;0.50;;;6.00;99.90;;;;;;4998506;28;20464;-81
2021/12/01 02:04:22;;;;;;;0.40;0.32;;;6.10;99.90;;;;;;4988458;28;20563;-81
2021/12/01 02:06:49;;;;;;;4.00;1.05;;;6.10;99.90;;;;;;4984767;28;20201;-80
2021/12/01 02:09:19;;;;;;;0.82;0.68;;;6.10;99.90;;;;;;4997965;28;20186;-81
2021/12/01 02:11:45;;;;;;;1.52;0.88;;;6.10;99.90;;;;;;5000722;28;20187;-80
2021/12/01 02:14:10;;;;;;;1.33;0.93;;;6.20;99.90;;;;;;4997354;28;20213;-80
2021/12/01 02:16:37;;;;;;;2.20;0.57;;;6.10;99.90;;;;;;4984968;28;20214;-80
2021/12/01 02:19:03;;;;;;;3.25;0.80;;;;;;;;;;5014696;23;20182;-90
2021/12/01 02:21:30;;;;;;;0.50;0.40;;;6.20;99.90;;;;;;4996147;28;20223;-89
2021/12/01 02:24:04;;;;;;;0.95;0.52;;;6.20;99.90;;;;;;4997323;28;20183;-91
2021/12/01 02:26:32;;;;;;;2.05;1.00;;;6.20;99.90;;;;;;4981574;28;22706;-90
2021/12/01 02:29:01;;;;;;;0.80;0.77;;;6.20;99.90;;;;;;5003885;28;20186;-89
2021/12/01 02:31:34;;;;;;;1.13;0.40;;;;;;;;;;4998644;28;20214;-88
2021/12/01 02:34:01;;;;;;;0.70;0.60;;;6.20;99.90;;;;;;4988825;28;20205;-88
2021/12/01 02:36:28;;;;;;;1.20;0.50;;;;;;;;;;4978242;28;20223;-89
2021/12/01 02:38:54;;;;;;;1.25;1.15;;;;;;;;;;4994857;28;20179;-88
2021/12/01 02:41:28;;;;;;;0.90;0.67;;;6.20;99.90;;;;;;4979939;28;20247;-89
2021/12/01 02:43:54;;;;;;;1.40;0.68;;;;;;;;;;4982864;28;20508;-89
2021/12/01 02:46:20;;;;;;;1.70;0.82;;;;;;;;;;4979493;28;20221;-89
2021/12/01 02:48:46;;;;;;;0.97;0.90;;;;;;;;;;4983666;28;20191;-88
2021/12/01 02:51:12;;;;;;;3.08;1.58;;;6.40;99.90;;;;;;4996248;28;20446;-88
2021/12/01 02:53:40;;;;;;;1.80;1.02;;;6.30;99.90;;;;;;4983584;28;20236;-89
2021/12/01 02:56:07;;;;;;;1.73;1.05;;;6.40;99.90;;;;;;4996563;28;20199;-89
2021/12/01 02:58:42;;;;;;;0.70;0.70;;;6.30;99.90;;;;;;4999200;28;20191;-87
2021/12/01 03:01:12;;;;;;;1.20;0.98;;;6.40;99.90;;;;;;4981459;28;20553;-88
2021/12/01 03:03:39;;;;;;;1.45;1.35;;;6.40;99.90;;;;;;4998425;28;20279;-88
2021/12/01 03:06:06;;;;;;;1.15;1.05;;;6.40;99.90;;;;;;4996721;28;20210;-88
2021/12/01 03:08:33;;;;;;;1.05;0.95;;;6.40;99.90;;;;;;4981022;28;20221;-89
2021/12/01 03:10:59;;;;;;;0.95;0.85;;;;;;;;;;4993493;28;20182;-89
2021/12/01 03:13:25;;;;;;;1.37;1.00;;;;;;;;;;4995933;28;20187;-89
2021/12/01 03:15:51;;;;;;;0.60;0.50;;;6.40;99.90;;;;;;4995071;28;20530;-90
2021/12/01 03:18:17;;;;;;;2.95;0.90;;;;;;;;;;4980524;28;20194;-89
2021/12/01 03:20:45;;;;;;;3.60;0.90;;;6.40;99.90;;;;;;4995088;28;20187;-89
2021/12/01 03:23:11;;;;;;;1.50;1.17;;;;;;;;;;4997478;28;20570;-89
2021/12/01 03:25:37;;;;;;;0.85;0.82;;;;;;;;;;4980359;28;21092;-89
2021/12/01 03:28:03;;;;;;;2.17;1.30;;;;;;;;;;4983712;28;20199;-89
2021/12/01 03:30:34;;;;;;;0.90;0.90;;;;;;;;;;4978386;28;20454;-88
2021/12/01 03:33:00;;;;;;;1.20;0.80;;;6.40;99.90;;;;;;4974915;28;20201;-89
2021/12/01 03:35:26;;;;;;;1.13;1.00;;;6.40;99.90;;;;;;4995051;28;20216;-90
2021/12/01 03:37:52;;;;;;;1.17;1.03;;;;;;;;;;4981807;28;20175;-89
2021/12/01 03:40:18;;;;;;;1.13;1.00;;;;;;;;;;4981904;28;20476;-88
2021/12/01 03:42:44;;;;;;;1.40;1.30;;;;;;;;;;4991336;28;20434;-89
2021/12/01 03:45:11;;;;;;;1.27;1.17;;;6.50;99.90;;;;;;4992035;28;20441;-90
2021/12/01 03:47:37;;;;;;;2.42;1.38;;;;;;;;;;4996747;28;20211;-89
2021/12/01 03:50:03;;;;;;;1.33;1.00;;;;;;;;;;4995777;28;20190;-89
2021/12/01 03:52:29;;;;;;;2.15;0.98;;;6.50;99.90;;;;;;4996074;28;20442;-89
2021/12/01 03:54:55;;;;;;;1.15;0.95;;;;;;;;;;4989802;28;20801;-89
2021/12/01 03:57:21;;;;;;;0.80;0.70;;;;;;;;;;5013753;28;20206;-90
2021/12/01 03:59:47;;;;;;;0.77;0.77;;;;;;;;;;5023850;28;20222;-90
2021/12/01 04:02:13;;;;;;;1.50;0.80;;;;;;;;;;5023670;28;20445;-88
2021/12/01 04:04:39;;;;;;;2.87;1.10;;;;;;;;;;4991669;28;20313;-89
2021/12/01 04:07:05;;;;;;;0.73;0.73;;;;;;;;;;4998773;28;20456;-89
2021/12/01 04:09:32;;;;;;;1.55;0.90;;;6.60;99.90;;;;;;4987330;28;20816;-89
2021/12/01 04:11:59;;;;;;;1.23;0.90;;;;;;;;;;4997939;28;20186;-89
2021/12/01 04:14:25;;;;;;;1.15;0.70;;;;;;;;;;4984590;28;20205;-89
2021/12/01 04:16:51;;;;;;;1.48;0.90;;;;;;;;;;4996418;28;20191;-89
2021/12/01 04:19:17;;;;;;;0.93;0.77;;;8.10;99.90;;;;;;4981521;28;20254;-89
2021/12/01 04:21:46;;;;;;;1.65;1.50;;;6.60;99.90;;;;;;4996141;28;20658;-89
2021/12/01 04:24:12;;;;;;;0.90;0.80;;;6.60;99.90;;;;;;5020485;23;20225;-88
2021/12/01 04:26:38;;;;;;;1.33;0.80;;;;;;;;;;4997623;28;20183;-87
2021/12/01 04:29:05;;;;;;;2.67;0.90;;;6.70;99.90;;;;;;5012834;28;20699;-85
2021/12/01 04:31:38;;;;;;;0.90;0.63;;;6.70;99.90;;;;;;4995019;28;20346;-86
2021/12/01 04:34:04;;;;;;;0.60;0.60;;;;;;;;;;4994715;28;20270;-85
2021/12/01 04:36:35;;;;;;;1.65;0.77;;;6.80;99.90;;;;;;4978783;28;20183;-85
2021/12/01 04:39:03;;;;;;;1.27;0.88;;;6.90;99.90;;;;;;4964353;28;20179;-86
2021/12/01 04:41:30;;;;;;;0.57;0.57;;;6.90;99.90;;;;;;4958186;28;20613;-87
2021/12/01 04:44:00;;;;;;;1.63;0.85;;;6.80;99.90;;;;;;4958752;28;20179;-86
2021/12/01 04:46:25;;;;;;;1.85;1.00;;;6.80;99.90;;;;;;4959642;28;20203;-86
2021/12/01 04:48:51;;;;;;;1.57;0.93;;;;;;;;;;4964019;28;20179;-87
2021/12/01 04:51:19;;;;;;;0.80;0.80;;;6.80;99.90;;;;;;4994737;28;20805;-86
2021/12/01 04:53:46;;;;;;;0.93;0.50;;;6.90;99.90;;;;;;4978428;28;20414;-91
2021/12/01 04:56:12;;;;;;;0.80;0.50;;;;;;;;;;4994481;28;20648;-86
2021/12/01 04:58:38;;;;;;;1.83;0.80;;;6.90;99.90;;;;;;4994595;28;20190;-88
2021/12/01 05:01:04;;;;;;;0.97;0.77;;;;;;;;;;4993782;28;20466;-85
2021/12/01 05:03:30;;;;;;;0.80;0.80;;;;;;;;;;4991439;28;20277;-87
2021/12/01 05:05:56;;;;;;;2.22;0.55;;;6.90;99.90;;;;;;4996523;28;20434;-87
2021/12/01 05:08:23;;;;;;;1.80;0.70;;;;;;;;;;4997108;28;20187;-86
2021/12/01 05:10:50;;;;;;;0.52;0.50;;;6.90;99.90;;;;;;4979912;28;20244;-85
2021/12/01 05:13:16;;;;;;;1.35;0.60;;;;;;;;;;4981728;28;20202;-85
2021/12/01 05:15:42;;;;;;;0.95;0.68;;;6.90;99.90;;;;;;4975223;28;20699;-85
2021/12/01 05:18:08;;;;;;;0.90;0.50;;;7.00;99.90;;;;;;4993246;28;20190;-86
2021/12/01 05:20:35;;;;;;;0.80;0.50;;;;;;;;;;4989155;28;20439;-85
2021/12/01 05:23:00;;;;;;;1.05;0.50;;;7.00;99.90;;;;;;4996307;28;20213;-85
2021/12/01 05:25:26;;;;;;;3.03;0.90;;;;;;;;;;4980010;28;20203;-87
2021/12/01 05:27:52;;;;;;;0.80;0.50;;;;;;;;;;4993684;28;20218;-88
2021/12/01 05:30:20;;;;;;;2.58;1.48;;;;;;;;;;4989717;28;20552;-86
2021/12/01 05:32:47;;;;;;;3.17;0.85;;;7.20;99.90;;;;;;4987796;28;20186;-87
2021/12/01 05:35:13;;;;;;;0.55;0.43;;;7.10;99.90;;;;;;4992468;28;20605;-87
2021/12/01 05:37:38;;;;;;;0.50;0.30;;;7.20;99.90;;;;;;4991301;28;20210;-88
2021/12/01 05:40:05;;;;;;;0.40;0.30;;;7.10;99.90;;;;;;4992976;28;20249;-87
2021/12/01 05:42:31;;;;;;;2.17;0.40;;;7.10;99.90;;;;;;4988731;28;20266;-88
2021/12/01 05:44:56;;;;;;;2.75;1.60;;;7.20;99.90;;;;;;4986238;28;20197;-85
2021/12/01 05:47:22;;;;;;;1.17;0.80;;;7.10;99.90;;;;;;4987797;28;20187;-84
2021/12/01 05:49:48;;;;;;;0.87;0.77;;;;;;;;;;4976959;28;21103;-84
2021/12/01 05:52:15;;;;;;;1.50;0.68;;;7.10;99.90;;;;;;4986781;28;20189;-85
2021/12/01 05:54:43;;;;;;;0.88;0.70;;;;;;;;;;4975344;28;20472;-87
2021/12/01 05:57:09;;;;;;;1.63;0.75;;;7.30;99.90;;;;;;4986370;28;20194;-83
2021/12/01 05:59:35;;;;;;;2.42;0.73;;;7.40;99.90;;;;;;4967103;28;20203;-84
2021/12/01 06:02:01;;;;;;;1.27;0.70;;;7.40;99.90;;;;;;4982347;28;20187;-84
2021/12/01 06:04:27;;;;;;;3.23;0.73;;;7.40;99.90;;;;;;4985263;28;20322;-85
2021/12/01 06:06:53;;;;;;;2.35;0.50;;;7.40;99.90;;;;;;4984797;28;20179;-86
2021/12/01 06:09:19;;;;;;;0.87;0.60;;;7.40;99.90;;;;;;4987910;28;20217;-85
2021/12/01 06:11:46;;;;;;;0.87;0.40;;;7.40;99.90;;;;;;4995298;28;20217;-86
2021/12/01 06:14:14;;;;;;;0.75;0.50;;;7.40;99.90;;;;;;4990232;28;20206;-83
2021/12/01 06:16:39;;;;;;;0.82;0.60;;;7.40;99.90;;;;;;4990797;28;20754;-85
2021/12/01 06:19:05;;;;;;;4.93;0.70;;;7.40;99.90;;;;;;4987575;28;20213;-85
2021/12/01 06:21:30;;;;;;;1.50;0.60;;;7.50;99.90;;;;;;4982569;28;20167;-83
2021/12/01 06:23:56;;;;;;;0.60;0.60;;;7.40;99.90;;;;;;4995580;28;20206;-84
2021/12/01 06:26:21;;;;;;;1.93;0.70;;;7.40;99.90;;;;;;4981670;28;20675;-84
2021/12/01 06:28:47;;;;;;;1.00;0.70;;;7.40;99.90;;;;;;4979538;28;20662;-86
2021/12/01 06:31:13;;;;;;;0.60;0.40;;;7.40;99.90;;;;;;4986543;28;20218;-84
2021/12/01 06:33:38;;;;;;;1.33;0.70;;;7.40;99.90;;;;;;4971404;28;20213;-83
2021/12/01 06:36:04;;;;;;;4.20;0.50;;;7.40;99.90;;;;;;4992238;28;20179;-85
2021/12/01 06:38:30;;;;;;;1.60;0.70;;;7.40;99.90;;;;;;4980791;28;20183;-85
2021/12/01 06:40:55;;;;;;;2.87;0.60;;;7.40;99.90;;;;;;4994786;28;20203;-83
2021/12/01 06:43:21;;;;;;;0.70;0.50;;;7.40;99.90;;;;;;4995069;28;20167;-84
2021/12/01 06:45:46;;;;;;;0.70;0.60;;;7.50;99.90;;;;;;4979237;28;20187;-84
2021/12/01 06:48:12;;;;;;;1.30;0.70;;;7.50;99.90;;;;;;4990703;28;20232;-88
2021/12/01 06:50:38;;;;;;;2.63;0.33;;;7.60;99.90;;;;;;4990907;28;20210;-85
2021/12/01 06:53:04;;;;;;;1.10;0.40;;;7.60;99.90;;;;;;4982498;28;20184;-85
2021/12/01 06:55:31;;;;;;;1.23;0.70;;;7.60;99.90;;;;;;4993602;28;20226;-84
2021/12/01 06:57:56;;;;;;;1.27;0.30;;;7.60;99.90;;;;;;4988878;28;20183;-85
2021/12/01 07:00:22;;;;;;;1.20;0.50;;;7.60;99.90;;;;;;4989503;28;20458;-85
2021/12/01 07:02:48;;;;;;;0.53;0.40;;;7.60;99.90;;;;;;4988484;28;20226;-85
2021/12/01 07:05:14;;;;;;;0.50;0.40;;;;;;;;;;4992517;28;20175;-85
2021/12/01 07:07:40;;;;;;;2.75;0.90;;;7.60;99.90;;;;;;4989055;28;20613;-86
2021/12/01 07:10:09;;;;;;;0.60;0.50;;;7.60;99.90;;;;;;4986703;28;20261;-86
2021/12/01 07:12:34;;;;;;;3.53;0.65;;;7.60;99.90;;;;;;4992559;28;20433;-85
2021/12/01 07:15:00;;;;;;;0.60;0.60;;;7.60;99.90;;;;;;4990046;28;20765;-83
2021/12/01 07:17:25;;;;;;;1.07;0.57;;;7.60;99.90;;;;;;4989805;28;20183;-85
2021/12/01 07:19:51;;;;;;;1.27;0.30;;;7.60;99.90;;;;;;4994175;28;20231;-85
2021/12/01 07:22:17;;;;;;;1.80;0.60;;;7.50;99.90;;;;;;4991092;28;20221;-85
2021/12/01 07:24:43;;;;;;;1.83;0.77;;;7.60;99.90;;;;;;4992443;28;20182;-84
2021/12/01 07:27:10;;;;;;;0.60;0.60;;;7.60;99.90;;;;;;4994103;28;20171;-84
2021/12/01 07:29:36;;;;;;;5.10;0.65;;;7.60;99.90;;;;;;4990189;28;20206;-84
2021/12/01 07:32:03;;;;;;;1.67;1.08;;;7.60;99.90;;;;;;4986975;28;20175;-86
2021/12/01 07:34:29;;;;;;;2.03;1.17;;;7.60;99.90;;;;;;4989440;28;20605;-86
2021/12/01 07:36:55;;;;;;;0.40;0.40;;;7.50;99.90;;;;;;4992696;28;20195;-86
2021/12/01 07:39:21;;;;;;;0.90;0.70;;;7.50;99.90;;;;;;4987201;28;20234;-85
2021/12/01 07:41:48;;;;;;;0.70;0.50;;;7.50;99.90;;;;;;4990964;28;20172;-84
2021/12/01 07:44:13;;;;;;;0.40;0.30;;;7.50;99.90;;;;;;4981926;28;20218;-85
2021/12/01 07:46:39;;;;;;;5.73;5.20;;;7.60;99.90;;;;;;4970950;28;20194;-85
2021/12/01 07:49:05;;;;;;;0.70;0.70;;;7.70;99.90;;;;;;4989428;28;20191;-84
2021/12/01 07:51:32;;;;;;;1.00;0.60;;;7.70;99.90;;;;;;4988105;28;20245;-84
2021/12/01 07:53:57;;;;;;;1.00;0.50;;;7.70;99.90;;;;;;4988956;28;20472;-84
2021/12/01 07:56:23;;;;;;;0.60;0.60;;;7.80;99.90;;;;;;4987195;28;20282;-84
2021/12/01 07:58:48;;;;;;;0.70;0.60;;;7.90;99.90;;;;;;4986795;28;20195;-85
2021/12/01 08:01:14;;;;;;;0.50;0.40;;;7.90;99.90;;;;;;4993391;28;20187;-83
2021/12/01 08:03:39;;;;;;;0.83;0.83;;;7.70;99.90;;;;;;4988183;28;20247;-85
2021/12/01 08:06:05;;;;;;;0.43;0.40;;;7.80;99.90;;;;;;4986789;28;20585;-84
2021/12/01 08:08:31;;;;;;;0.70;0.57;;;;;;;;;;4987191;28;20179;-84
2021/12/01 08:10:57;;;;;;;0.98;0.52;;;7.80;99.90;;;;;;4988682;28;20198;-86
2021/12/01 08:13:22;;;;;;;0.43;0.40;;;7.90;99.90;;;;;;4995398;28;20237;-84
2021/12/01 08:15:49;;;;;;;1.60;0.87;;;8.00;99.90;;;;;;4993436;28;20621;-82
2021/12/01 08:18:16;;;;;;;2.15;0.98;;;8.20;99.90;;;;;;4993358;28;20175;-87
2021/12/01 08:20:42;;;;;;;0.93;0.70;;;8.10;99.90;;;;;;5005358;23;20245;-84
2021/12/01 08:23:08;;;;;;;1.00;0.83;;;;;;;;;;5005735;28;20178;-84
2021/12/01 08:25:35;;;;;;;4.13;2.10;;;;;;;;;;5011927;28;20178;-84
2021/12/01 08:28:02;;;;;;;1.63;0.85;;;8.20;99.90;;;;;;5007434;28;20183;-84
2021/12/01 08:30:28;;;;;;;1.23;0.80;;;8.40;99.90;;;;;;5006110;28;20198;-84
2021/12/01 08:32:54;;;;;;;1.90;0.60;;;8.30;99.90;;;;;;5009508;28;20900;-84
2021/12/01 08:35:20;;;;;;;32.67;14.23;;;;;;;;;;5001536;28;20214;-84
2021/12/01 08:37:46;;;;;;;11.85;5.55;;;8.30;99.90;;;;;;5011320;28;20190;-84
2021/12/01 08:40:14;;;;;;;7.50;5.00;;;8.20;99.90;;;;;;5009369;28;20182;-84
2021/12/01 08:42:40;;;;;;;1.05;0.90;;;8.20;99.90;;;;;;5012833;28;20174;-84
2021/12/01 08:45:06;;;;;;;3.70;2.07;;;8.10;99.90;;;;;;5011477;28;20455;-85
2021/12/01 08:47:32;;;;;;;3.50;1.50;;;8.00;99.90;;;;;;5011520;28;20548;-84
2021/12/01 08:49:58;;;;;;;1.10;0.50;;;;;;;;;;5013588;28;20194;-84
2021/12/01 08:52:24;;;;;;;0.70;0.60;;;8.00;99.90;;;;;;5015661;28;20198;-86
2021/12/01 08:54:49;;;;;;;2.13;0.70;;;8.00;99.90;;;;;;5011352;28;20554;-84
2021/12/01 08:57:15;;;;;;;1.70;0.93;;;8.00;99.90;;;;;;5009342;28;20210;-80
2021/12/01 08:59:41;;;;;;;1.57;0.90;;;8.00;99.90;;;;;;5000981;28;20190;-83
2021/12/01 09:02:06;;;;;;;1.83;0.90;;;8.00;99.90;;;;;;5002648;28;20761;-80
2021/12/01 09:04:32;;;;;;;2.40;1.27;;;7.90;99.90;;;;;;5003761;28;20193;-80
2021/12/01 09:06:58;;;;;;;2.97;1.40;;;7.90;99.90;;;;;;5002339;28;20214;-81
2021/12/01 09:09:24;;;;;;;0.57;0.40;;;7.90;99.90;;;;;;4996953;28;20435;-82
2021/12/01 09:11:51;;;;;;;1.17;0.70;;;7.80;99.90;;;;;;5001464;28;20214;-79
2021/12/01 09:14:19;;;;;;;0.88;0.77;;;7.80;99.90;;;;;;5002387;28;20712;-82
2021/12/01 09:16:46;;;;;;;2.15;1.13;;;9.70;99.90;;;;;;5005700;28;20269;-80
2021/12/01 09:19:12;;;;;;;3.65;1.10;;;7.90;99.90;;;;;;4990589;28;20179;-81
2021/12/01 09:21:38;;;;;;;0.55;0.38;;;7.90;99.90;;;;;;4995527;28;20234;-80
2021/12/01 09:24:05;;;;;;;2.60;1.30;;;8.00;99.90;;;;;;5002112;28;20710;-80
2021/12/01 09:26:31;;;;;;;2.15;0.80;;;8.10;99.90;;;;;;5008552;28;20445;-81
2021/12/01 09:28:58;;;;;;;1.20;0.50;;;8.10;99.90;;;;;;4996782;28;20178;-80
2021/12/01 09:31:23;;;;;;;1.60;1.23;;;8.20;99.90;;;;;;5004640;28;20206;-80
2021/12/01 09:33:49;;;;;;;4.37;2.40;;;8.30;99.90;;;;;;4989500;28;20193;-80
2021/12/01 09:36:15;;;;;;;1.33;0.50;;;8.40;99.90;;;;;;4997102;28;20182;-81
2021/12/01 09:38:41;;;;;;;2.10;0.80;;;8.40;99.90;;;;;;5006701;28;20794;-79
2021/12/01 09:41:07;;;;;;;1.60;0.85;;;8.50;99.90;;;;;;5005173;28;20214;-79
2021/12/01 09:43:33;;;;;;;0.60;0.40;;;8.50;99.90;;;;;;5010765;28;20217;-79
2021/12/01 09:46:04;;;;;;;0.90;0.50;;;8.50;99.90;;;;;;4993651;28;20209;-80
2021/12/01 09:48:31;;;;;;;0.93;0.57;;;8.50;99.90;;;;;;4998098;28;20193;-80
2021/12/01 09:50:56;;;;;;;0.50;0.50;;;8.50;99.90;;;;;;4998023;28;20202;-80
2021/12/01 09:53:22;;;;;;;1.30;0.90;;;8.40;99.90;;;;;;5014076;28;20445;-79
2021/12/01 09:55:48;;;;;;;0.83;0.50;;;8.60;99.90;;;;;;5008744;28;20293;-80
2021/12/01 09:58:16;;;;;;;0.70;0.60;;;8.60;99.90;;;;;;5012186;28;20225;-80
2021/12/01 10:00:49;;;;;;;1.00;0.38;;;8.60;99.90;;;;;;5000674;28;20210;-80
2021/12/01 10:03:15;;;;;;;0.90;0.73;;;;;;;;;;5012216;28;20736;-80
2021/12/01 10:06:10;;;;;;;1.55;0.60;;;8.60;99.90;;;;;;5011770;28;20190;-80
2021/12/01 10:08:41;;;;;;;0.80;0.40;;;8.60;99.90;;;;;;4998114;28;20908;-80
2021/12/01 10:11:15;;;;;;;1.92;1.13;;;8.70;99.90;;;;;;5013839;28;20229;-80
2021/12/01 10:13:50;;;;;;;2.00;1.10;;;8.70;99.90;;;;;;4993619;28;20202;-80
2021/12/01 10:16:18;;;;;;;1.98;1.10;;;8.70;99.90;;;;;;4999735;28;20627;-80
2021/12/01 10:18:48;;;;;;;2.35;0.60;;;8.70;99.90;;;;;;5004921;28;20206;-80
2021/12/01 10:21:14;;;;;;;0.70;0.50;;;;;;;;;;4982930;28;20245;-79
2021/12/01 10:23:58;;;;;;;0.83;0.33;;;8.70;99.90;;;;;;5009351;28;20257;-80
2021/12/01 10:26:32;;;;;;;0.93;0.40;;;8.70;99.90;;;;;;4987846;28;20432;-81
2021/12/01 10:29:00;;;;;;;4.32;3.50;;;8.60;99.90;;;;;;4980226;28;20190;-81
2021/12/01 10:31:35;;;;;;;1.23;1.13;;;8.50;99.90;;;;;;4980717;28;20326;-80
2021/12/01 10:34:25;;;;;;;0.40;0.30;;;8.60;99.90;;;;;;4993576;28;20243;-82
2021/12/01 10:37:08;;;;;;;0.85;0.30;;;8.70;99.90;;;;;;5010150;28;20174;-82
2021/12/01 10:39:34;;;;;;;0.63;0.40;;;8.70;99.90;;;;;;4992902;28;20775;-82
2021/12/01 10:42:10;;;;;;;0.50;0.30;;;8.80;99.90;;;;;;5007056;28;20726;-80
2021/12/01 10:44:53;;;;;;;0.50;0.30;;;8.80;99.90;;;;;;5005367;28;20190;-82
2021/12/01 10:47:18;;;;;;;0.40;0.40;;;8.80;99.90;;;;;;5012728;28;20284;-80
2021/12/01 10:49:46;;;;;;;11.77;6.77;;;8.80;99.90;;;;;;5016518;28;20674;-82
2021/12/01 10:52:27;;;;;;;2.20;1.42;;;8.80;99.90;;;;;;5011737;28;20241;-82
2021/12/01 10:55:23;;;;;;;3.90;0.85;;;8.90;99.90;;;;;;4987907;28;20581;-82
2021/12/01 10:57:55;;;;;;;3.70;3.05;;;8.90;99.90;;;;;;4997841;28;20232;-85
2021/12/01 11:00:33;;;;;;;2.88;1.98;;;9.10;99.90;;;;;;4994440;28;20206;-86
2021/12/01 11:03:24;;;;;;;1.85;1.42;;;9.10;99.90;;;;;;4988995;28;20182;-86
2021/12/01 11:05:52;;;;;;;3.15;2.00;;;9.10;99.90;;;;;;5004908;28;20175;-84
2021/12/01 11:08:26;;;;;;;0.60;0.47;;;9.10;99.90;;;;;;4992856;28;20203;-84
2021/12/01 11:11:03;;;;;;;0.98;0.80;;;9.10;99.90;;;;;;4996191;28;20212;-85
2021/12/01 11:13:28;;;;;;;1.63;0.40;;;9.00;99.90;;;;;;5011251;28;20193;-83
2021/12/01 11:15:57;;;;;;;1.27;0.50;;;9.00;99.90;;;;;;5012828;28;20746;-85
2021/12/01 11:18:28;;;;;;;1.95;0.40;;;9.10;99.90;;;;;;5000675;28;20711;-85
2021/12/01 11:20:57;;;;;;;1.10;0.70;;;9.10;99.90;;;;;;4993229;28;20284;-85
2021/12/01 11:23:32;;;;;;;1.33;1.23;;;9.00;99.90;;;;;;5008111;28;20371;-85
2021/12/01 11:26:09;;;;;;;0.68;0.40;;;8.90;99.90;;;;;;4994344;28;20197;-85
2021/12/01 11:28:41;;;;;;;0.60;0.60;;;8.80;99.90;;;;;;4981683;28;20186;-84
2021/12/01 11:31:11;;;;;;;0.60;0.50;;;8.60;99.90;;;;;;4976298;28;20245;-84
2021/12/01 11:33:43;;;;;;;1.15;0.45;;;8.50;99.90;;;;;;5003463;28;21174;-85
2021/12/01 11:36:09;;;;;;;0.77;0.40;;;;;;;;;;5009434;28;20195;-83
2021/12/01 11:38:36;;;;;;;0.52;0.30;;;8.60;99.90;;;;;;5008704;28;20268;-83
2021/12/01 11:41:05;;;;;;;0.50;0.40;;;8.60;99.90;;;;;;5012144;28;20209;-83
2021/12/01 11:43:33;;;;;;;0.60;0.60;;;8.60;99.90;;;;;;5012944;28;20174;-83
2021/12/01 11:45:59;;;;;;;0.40;0.30;;;8.70;99.90;;;;;;5010836;28;20790;-85
2021/12/01 11:48:30;;;;;;;0.40;0.30;;;8.80;99.90;;;;;;5013645;28;20788;-86
2021/12/01 11:51:15;;;;;;;0.50;0.40;;;8.80;99.90;;;;;;4992747;28;20246;-85
2021/12/01 11:53:47;;;;;;;1.40;0.50;;;8.80;99.90;;;;;;5008994;28;20174;-86
2021/12/01 11:56:17;;;;;;;0.45;0.32;;;8.90;99.90;;;;;;5012277;28;20190;-85
2021/12/01 11:59:11;;;;;;;0.90;0.60;;;8.90;99.90;;;;;;4996432;28;20190;-85
2021/12/01 12:01:38;;;;;;;0.57;0.40;;;9.00;99.90;;;;;;5008845;28;20209;-85
2021/12/01 12:04:07;;;;;;;0.68;0.40;;;9.10;99.90;;;;;;5011403;28;21235;-84
2021/12/01 12:06:35;;;;;;;0.50;0.30;;;9.20;99.90;;;;;;4987318;28;20781;-84
2021/12/01 12:09:06;;;;;;;0.40;0.40;;;9.30;99.90;;;;;;5010363;28;20277;-84
2021/12/01 12:11:39;;;;;;;1.13;0.35;;;9.40;99.90;;;;;;5010014;28;20198;-83
2021/12/01 12:14:06;;;;;;;0.40;0.30;;;9.60;99.90;;;;;;5011840;28;20191;-83
2021/12/01 12:16:32;;;;;;;0.57;0.38;;;9.60;99.90;;;;;;4990368;28;20163;-83
2021/12/01 12:18:59;;;;;;;0.98;0.35;;;9.80;99.90;;;;;;4984402;28;20269;-83
2021/12/01 12:24:13;;;;;;;0.60;0.45;;;10.00;99.90;;;;;;5010701;28;20174;-83
2021/12/01 12:26:44;;;;;;;0.90;0.60;;;9.90;99.90;;;;;;5012549;28;20221;-83
2021/12/01 12:29:19;;;;;;;0.70;0.30;;;9.90;99.90;;;;;;4991075;28;20175;-83
2021/12/01 12:31:47;;;;;;;0.60;0.30;;;10.00;99.90;;;;;;5010967;28;20214;-85
2021/12/01 12:34:22;;;;;;;0.50;0.35;;;9.80;99.90;;;;;;4984048;28;20792;-84
2021/12/01 12:36:47;;;;;;;0.75;0.40;;;9.80;99.90;;;;;;5009137;28;20180;-83
2021/12/01 12:39:18;;;;;;;0.40;0.30;;;9.80;99.90;;;;;;5007607;28;20182;-83
2021/12/01 12:41:57;;;;;;;0.93;0.30;;;9.70;99.90;;;;;;4984545;28;20252;-83
2021/12/01 12:44:48;;;;;;;4.50;0.70;;;9.70;99.90;;;;;;5012377;28;20193;-83
2021/12/01 12:47:24;;;;;;;0.80;0.80;;;9.70;99.90;;;;;;4992010;28;20186;-83
2021/12/01 12:50:08;;;;;;;0.50;0.40;;;9.90;99.90;;;;;;5012497;28;20186;-83
2021/12/01 12:52:42;;;;;;;0.60;0.30;;;9.90;99.90;;;;;;4987857;28;20713;-84
2021/12/01 12:55:19;;;;;;;0.30;0.30;;;9.60;99.90;;;;;;4996527;28;20671;-85
2021/12/01 12:57:54;;;;;;;0.85;0.50;;;9.70;99.90;;;;;;5011810;28;20170;-83
2021/12/01 13:00:32;;;;;;;0.70;0.50;;;9.80;99.90;;;;;;4991978;28;20204;-83
2021/12/01 13:03:24;;;;;;;0.60;0.40;;;9.80;99.90;;;;;;4993481;28;20174;-84
2021/12/01 13:06:24;;;;;;;0.65;0.40;;;9.70;99.90;;;;;;5012118;28;20193;-85
2021/12/01 13:08:50;;;;;;;0.50;0.43;;;9.80;99.90;;;;;;5011077;28;20189;-85
2021/12/01 13:11:20;;;;;;;0.63;0.30;;;9.60;99.90;;;;;;5012575;28;20206;-84
2021/12/01 13:13:57;;;;;;;0.40;0.40;;;9.60;99.90;;;;;;4992095;28;20289;-85
2021/12/01 13:16:24;;;;;;;0.50;0.30;;;9.60;99.90;;;;;;5009235;28;20228;-85
2021/12/01 13:18:51;;;;;;;0.50;0.40;;;9.60;99.90;;;;;;4993695;28;20193;-85
2021/12/01 13:21:22;;;;;;;0.38;0.28;;;9.70;99.90;;;;;;4996972;28;20236;-85
2021/12/01 13:23:58;;;;;;;0.50;0.35;;;9.70;99.90;;;;;;4994721;28;20174;-85
2021/12/01 13:26:29;;;;;;;0.60;0.40;;;9.70;99.90;;;;;;4991580;28;20182;-85